Murzuq, Libya
Current Conditions -  °F | °C
As of 5:00 AM on Sunday 21 Dec 2014 (Local Time) from DAUZ Reporting Station
Clear Clear  
Wind Chill: 38°   Ceiling: Unl
Heat Index: 43°   Visibility: 6mi
Dew Point: 36°   Wind: 8mph
Humidity: 76%   Direction: 50°NE
Pressure: 30.36"   Gusts: NA
Location:  25.97°N, 14.05°E
Report Text: DAUZ 210200Z 05007KT CAVOK 06/02 Q1028
Loading
Personal Weather Stations






























Interactive Weather Map New forecast layout! Learn more

10-Day Weather Forecast

Advertisements
Track Severe Weather on mobile